createdAt,value
2017-11-27T00:00:09.725Z,101369.50
2017-11-27T00:02:38.843Z,101364.77
2017-11-27T00:05:07.193Z,101365.58
2017-11-27T00:07:35.532Z,101364.30
2017-11-27T00:10:03.925Z,101372.19
2017-11-27T00:12:33.049Z,101372.16
2017-11-27T00:15:02.545Z,101372.24
2017-11-27T00:17:32.001Z,101376.17
2017-11-27T00:20:00.364Z,101383.08
2017-11-27T00:22:41.106Z,101382.23
2017-11-27T00:25:09.862Z,101381.88
2017-11-27T00:27:38.186Z,101384.00
2017-11-27T00:30:06.578Z,101385.77
2017-11-27T00:32:34.914Z,101385.73
2017-11-27T00:35:03.241Z,101392.77
2017-11-27T00:37:31.603Z,101394.89
2017-11-27T00:39:59.953Z,101395.33
2017-11-27T00:42:29.042Z,101396.26
2017-11-27T00:44:58.520Z,101398.50
2017-11-27T00:47:26.889Z,101400.34
2017-11-27T00:49:55.607Z,101400.42
2017-11-27T00:52:24.710Z,101398.58
2017-11-27T00:54:53.457Z,101403.42
2017-11-27T00:57:21.769Z,101405.16
2017-11-27T00:59:50.082Z,101399.84
2017-11-27T01:02:19.585Z,101398.99
2017-11-27T01:04:47.901Z,101405.92
2017-11-27T01:07:16.356Z,101405.48
2017-11-27T01:09:44.689Z,101398.96
2017-11-27T01:12:13.784Z,101405.52
2017-11-27T01:14:42.900Z,101401.20
2017-11-27T01:17:11.993Z,101393.79
2017-11-27T01:19:41.693Z,101391.98
2017-11-27T01:22:10.804Z,101389.36
2017-11-27T01:24:40.265Z,101390.23
2017-11-27T01:27:08.598Z,101397.19
2017-11-27T01:29:36.896Z,101388.36
2017-11-27T01:32:05.268Z,101389.22
2017-11-27T01:34:33.592Z,101392.84
2017-11-27T01:37:03.481Z,101401.27
2017-11-27T01:39:31.800Z,101406.50
2017-11-27T01:42:00.159Z,101405.31
2017-11-27T01:44:28.865Z,101405.38
2017-11-27T01:46:57.192Z,101402.78
2017-11-27T01:49:25.556Z,101395.73
2017-11-27T01:51:53.894Z,101391.72
2017-11-27T01:54:22.248Z,101396.64
2017-11-27T01:56:51.317Z,101400.59
2017-11-27T01:59:19.664Z,101407.92
2017-11-27T02:01:48.244Z,101407.84
2017-11-27T02:04:20.030Z,101407.05
2017-11-27T02:06:48.361Z,101400.45
2017-11-27T02:09:16.668Z,101403.11
2017-11-27T02:11:45.417Z,101400.48
2017-11-27T02:14:14.491Z,101404.44
2017-11-27T02:16:42.838Z,101399.53
2017-11-27T02:19:11.181Z,101402.17
2017-11-27T02:21:39.528Z,101398.51
2017-11-27T02:24:08.625Z,101398.91
2017-11-27T02:26:37.756Z,101399.37
2017-11-27T02:29:06.069Z,101394.13
2017-11-27T02:31:34.453Z,101400.19
2017-11-27T02:34:02.785Z,101397.52
2017-11-27T02:36:31.130Z,101391.02
2017-11-27T02:39:00.354Z,101405.44
2017-11-27T02:41:29.450Z,101394.52
2017-11-27T02:43:57.827Z,101392.33
2017-11-27T02:46:26.532Z,101402.76
2017-11-27T02:48:54.843Z,101401.05
2017-11-27T02:51:23.215Z,101404.09
2017-11-27T02:53:51.541Z,101400.98
2017-11-27T02:56:19.888Z,101396.17
2017-11-27T02:58:48.204Z,101395.33
2017-11-27T03:01:16.563Z,101394.42
2017-11-27T03:03:44.876Z,101390.53
2017-11-27T03:06:13.226Z,101388.70
2017-11-27T03:08:41.576Z,101395.22
2017-11-27T03:11:10.687Z,101394.98
2017-11-27T03:13:39.047Z,101394.14
2017-11-27T03:16:07.399Z,101396.37
2017-11-27T03:18:35.752Z,101396.81
2017-11-27T03:21:05.250Z,101404.80
2017-11-27T03:23:34.731Z,101394.31
2017-11-27T03:26:03.809Z,101397.25
2017-11-27T03:28:32.544Z,101391.16
2017-11-27T03:31:00.892Z,101391.06
2017-11-27T03:33:30.020Z,101394.10
2017-11-27T03:35:58.338Z,101398.89
2017-11-27T03:38:27.044Z,101388.88
2017-11-27T03:40:56.179Z,101391.94
2017-11-27T03:43:24.511Z,101389.23
2017-11-27T03:45:53.968Z,101392.66
2017-11-27T03:48:22.315Z,101387.38
2017-11-27T03:50:50.658Z,101387.20
2017-11-27T03:53:19.776Z,101391.70
2017-11-27T03:55:48.099Z,101388.80
2017-11-27T03:58:16.459Z,101390.69
2017-11-27T04:00:44.841Z,101393.84
2017-11-27T04:03:13.247Z,101399.25
2017-11-27T04:05:41.569Z,101395.51
2017-11-27T04:08:09.937Z,101402.38
2017-11-27T04:10:39.031Z,101400.36
2017-11-27T04:13:07.395Z,101400.30
2017-11-27T04:15:37.247Z,101400.95
2017-11-27T04:18:05.967Z,101400.05
2017-11-27T04:20:34.330Z,101406.83
2017-11-27T04:23:03.411Z,101407.28
2017-11-27T04:25:32.273Z,101414.05
2017-11-27T04:28:00.592Z,101411.06
2017-11-27T04:30:29.720Z,101403.31
2017-11-27T04:32:58.286Z,101406.39
2017-11-27T04:35:29.119Z,101408.55
2017-11-27T04:37:57.601Z,101407.10
2017-11-27T04:40:25.914Z,101407.77
2017-11-27T04:42:55.028Z,101402.11
2017-11-27T04:45:23.346Z,101406.16
2017-11-27T04:47:51.699Z,101409.77
2017-11-27T04:50:20.775Z,101412.20
2017-11-27T04:52:49.127Z,101405.11
2017-11-27T04:55:19.006Z,101405.25
2017-11-27T04:57:47.339Z,101405.45
2017-11-27T05:00:16.067Z,101402.13
2017-11-27T05:02:44.576Z,101407.00
2017-11-27T05:05:13.424Z,101414.23
2017-11-27T05:07:41.765Z,101409.00
2017-11-27T05:10:10.116Z,101416.56
2017-11-27T05:12:38.422Z,101412.74
2017-11-27T05:15:07.551Z,101416.27
2017-11-27T05:17:36.292Z,101404.69
2017-11-27T05:20:05.371Z,101409.77
2017-11-27T05:22:34.489Z,101411.91
2017-11-27T05:25:02.806Z,101411.98
2017-11-27T05:27:31.159Z,101413.94
2017-11-27T05:29:59.515Z,101415.49
2017-11-27T05:32:28.639Z,101416.02
2017-11-27T05:34:56.982Z,101408.40
2017-11-27T05:37:26.696Z,101386.55
2017-11-27T05:39:55.790Z,101415.55
2017-11-27T05:42:24.874Z,101417.00
2017-11-27T05:44:53.222Z,101419.87
2017-11-27T05:47:21.575Z,101413.86
2017-11-27T05:49:50.292Z,101424.23
2017-11-27T05:52:19.424Z,101411.77
2017-11-27T05:54:48.543Z,101412.52
2017-11-27T05:57:16.871Z,101413.62
2017-11-27T05:59:45.246Z,101410.86
2017-11-27T06:02:14.331Z,101406.80
2017-11-27T06:04:42.655Z,101415.59
2017-11-27T06:07:12.358Z,101406.98
2017-11-27T06:09:41.446Z,101408.34
2017-11-27T06:12:09.790Z,101404.46
2017-11-27T06:14:38.146Z,101406.85
2017-11-27T06:17:07.601Z,101402.59
2017-11-27T06:19:35.910Z,101398.30
2017-11-27T06:22:04.274Z,101396.19
2017-11-27T06:24:34.002Z,101396.30
2017-11-27T06:27:02.338Z,101393.39
2017-11-27T06:29:31.079Z,101393.48
2017-11-27T06:31:59.425Z,101398.44
2017-11-27T06:34:29.277Z,101399.36
2017-11-27T06:36:57.619Z,101399.91
2017-11-27T06:39:25.963Z,101406.45
2017-11-27T06:41:55.098Z,101406.93
2017-11-27T06:44:23.423Z,101412.14
2017-11-27T06:46:52.511Z,101419.70
2017-11-27T06:49:20.854Z,101409.70
2017-11-27T06:51:49.193Z,101411.54
2017-11-27T06:54:17.557Z,101418.52
2017-11-27T06:56:45.901Z,101419.31
2017-11-27T06:59:14.255Z,101417.41
2017-11-27T07:01:42.590Z,101416.16
2017-11-27T07:04:10.942Z,101423.69
2017-11-27T07:06:40.039Z,101416.86
2017-11-27T07:09:08.394Z,101420.08
2017-11-27T07:11:36.732Z,101418.67
2017-11-27T07:14:05.823Z,101415.11
2017-11-27T07:16:34.161Z,101422.05
2017-11-27T07:19:02.506Z,101411.59
2017-11-27T07:21:31.239Z,101421.20
2017-11-27T07:24:00.367Z,101422.52
2017-11-27T07:26:28.685Z,101419.02
2017-11-27T07:28:57.473Z,101426.37
2017-11-27T07:31:26.570Z,101421.61
2017-11-27T07:33:56.074Z,101427.77
2017-11-27T07:36:24.433Z,101423.44
2017-11-27T07:38:58.962Z,101426.59
2017-11-27T07:41:28.193Z,101428.31
2017-11-27T07:43:56.510Z,101427.05
2017-11-27T07:46:25.645Z,101425.49
2017-11-27T07:48:54.109Z,101425.09
2017-11-27T07:51:22.465Z,101424.69
2017-11-27T07:53:51.202Z,101413.88
2017-11-27T07:56:19.561Z,101420.44
2017-11-27T07:58:47.897Z,101416.94
2017-11-27T08:01:16.245Z,101416.16
2017-11-27T08:03:44.609Z,101416.22
2017-11-27T08:06:12.940Z,101408.83
2017-11-27T08:08:42.062Z,101411.47
2017-11-27T08:11:10.405Z,101412.78
2017-11-27T08:13:39.530Z,101410.31
2017-11-27T08:16:07.897Z,101407.34
2017-11-27T08:18:37.011Z,101399.58
2017-11-27T08:21:05.345Z,101410.16
2017-11-27T08:23:33.694Z,101400.63
2017-11-27T08:26:02.022Z,101409.31
2017-11-27T08:28:30.370Z,101402.82
2017-11-27T08:30:58.709Z,101396.73
2017-11-27T08:33:28.253Z,101396.36
2017-11-27T08:35:56.600Z,101399.07
2017-11-27T08:38:25.725Z,101396.05
2017-11-27T08:40:54.049Z,101395.28
2017-11-27T08:43:22.421Z,101390.60
2017-11-27T08:45:50.788Z,101384.95
2017-11-27T08:48:19.169Z,101385.50
2017-11-27T08:50:47.926Z,101382.48
2017-11-27T08:53:16.241Z,101378.64
2017-11-27T08:55:44.592Z,101377.80
2017-11-27T08:58:13.381Z,101378.29
2017-11-27T09:00:41.741Z,101380.03
2017-11-27T09:03:10.100Z,101383.61
2017-11-27T09:05:38.485Z,101381.91
2017-11-27T09:08:07.217Z,101376.34
2017-11-27T09:10:36.345Z,101368.98
2017-11-27T09:13:04.702Z,101375.60
2017-11-27T09:15:33.061Z,101363.86
2017-11-27T09:18:02.145Z,101370.46
2017-11-27T09:20:31.317Z,101364.44
2017-11-27T09:22:59.681Z,101355.76
2017-11-27T09:25:28.020Z,101351.88
2017-11-27T09:27:57.157Z,101351.02
2017-11-27T09:30:25.482Z,101349.84
2017-11-27T09:32:53.808Z,101343.38
2017-11-27T09:35:22.571Z,101338.61
2017-11-27T09:37:50.904Z,101333.80
2017-11-27T09:40:19.288Z,101329.88
2017-11-27T09:42:47.604Z,101323.81
2017-11-27T09:45:15.933Z,101317.82
2017-11-27T09:47:44.265Z,101312.16
2017-11-27T09:50:13.363Z,101319.67
2017-11-27T09:52:42.494Z,101319.29
2017-11-27T09:55:11.708Z,101310.59
2017-11-27T09:57:40.016Z,101308.46
2017-11-27T10:00:08.384Z,101304.13
2017-11-27T10:02:37.512Z,101299.78
2017-11-27T10:05:05.844Z,101294.14
2017-11-27T10:07:34.961Z,101286.80
2017-11-27T10:10:03.300Z,101286.42
2017-11-27T10:12:33.181Z,101277.72
2017-11-27T10:15:02.349Z,101276.36
2017-11-27T10:17:30.728Z,101266.27
2017-11-27T10:20:00.555Z,101264.17
2017-11-27T10:22:30.055Z,101259.83
2017-11-27T10:24:59.563Z,101254.52
2017-11-27T10:27:27.876Z,101249.80
2017-11-27T10:29:57.748Z,101249.40
2017-11-27T10:32:26.083Z,101242.50
2017-11-27T10:34:55.753Z,101243.88
2017-11-27T10:37:26.343Z,101247.87
2017-11-27T10:39:56.057Z,101231.31
2017-11-27T10:42:25.904Z,101220.70
2017-11-27T10:44:54.286Z,101217.95
2017-11-27T10:47:23.415Z,101213.66
2017-11-27T10:49:51.748Z,101213.63
2017-11-27T10:52:20.124Z,101208.02
2017-11-27T10:54:48.488Z,101190.09
2017-11-27T10:57:17.211Z,101194.09
2017-11-27T10:59:45.525Z,101187.95
2017-11-27T11:02:13.861Z,101178.44
2017-11-27T11:04:42.238Z,101179.78
2017-11-27T11:07:10.564Z,101168.82
2017-11-27T11:09:39.655Z,101169.80
2017-11-27T11:12:09.176Z,101172.95
2017-11-27T11:14:38.263Z,101165.55
2017-11-27T11:17:07.376Z,101148.04
2017-11-27T11:19:36.116Z,101158.97
2017-11-27T11:22:05.584Z,101152.77
2017-11-27T11:24:34.716Z,101151.52
2017-11-27T11:27:03.079Z,101141.50
2017-11-27T11:29:31.443Z,101143.77
2017-11-27T11:32:00.531Z,101137.22
2017-11-27T11:34:29.657Z,101137.25
2017-11-27T11:36:57.969Z,101142.95
2017-11-27T11:39:27.049Z,101133.78
2017-11-27T11:41:56.164Z,101136.40
2017-11-27T11:44:25.852Z,101127.63
2017-11-27T11:46:54.211Z,101116.67
2017-11-27T11:49:22.554Z,101110.94
2017-11-27T11:51:50.927Z,101122.34
2017-11-27T11:54:19.240Z,101117.97
2017-11-27T11:56:47.575Z,101113.12
2017-11-27T11:59:15.952Z,101110.94
2017-11-27T12:01:45.655Z,101108.30
2017-11-27T12:04:14.084Z,101110.49
2017-11-27T12:06:42.444Z,101097.75
2017-11-27T12:09:10.772Z,101088.55
2017-11-27T12:11:39.892Z,101083.73
2017-11-27T12:14:09.709Z,101066.17
2017-11-27T12:16:38.455Z,101078.45
2017-11-27T12:19:07.719Z,101077.60
2017-11-27T12:21:36.492Z,101067.48
2017-11-27T12:24:04.835Z,101069.68
2017-11-27T12:26:33.959Z,101062.20
2017-11-27T12:29:03.459Z,101057.34
2017-11-27T12:31:32.572Z,101052.56
2017-11-27T12:34:01.668Z,101046.87
2017-11-27T12:36:30.000Z,101035.45
2017-11-27T12:38:58.772Z,101042.05
2017-11-27T12:41:27.894Z,101024.93
2017-11-27T12:43:56.643Z,101015.73
2017-11-27T12:46:24.959Z,101012.66
2017-11-27T12:48:53.289Z,101013.98
2017-11-27T12:51:21.644Z,101006.53
2017-11-27T12:53:50.352Z,100999.95
2017-11-27T12:56:18.708Z,100998.63
2017-11-27T12:58:48.375Z,100995.11
2017-11-27T13:01:18.219Z,100989.86
2017-11-27T13:03:46.537Z,100986.33
2017-11-27T13:06:14.905Z,100979.77
2017-11-27T13:08:43.235Z,100977.57
2017-11-27T13:11:11.559Z,100974.95
2017-11-27T13:13:39.914Z,100973.17
2017-11-27T13:16:08.251Z,100970.55
2017-11-27T13:18:37.360Z,100965.27
2017-11-27T13:21:05.712Z,100963.48
2017-11-27T13:23:34.795Z,100954.24
2017-11-27T13:26:03.144Z,100937.17
2017-11-27T13:28:31.507Z,100950.38
2017-11-27T13:31:00.240Z,100948.61
2017-11-27T13:33:28.989Z,100949.08
2017-11-27T13:35:57.710Z,100941.62
2017-11-27T13:38:27.191Z,100931.95
2017-11-27T13:40:55.510Z,100934.60
2017-11-27T13:43:24.631Z,100928.03
2017-11-27T13:45:52.944Z,100924.94
2017-11-27T13:48:21.304Z,100928.03
2017-11-27T13:50:49.624Z,100920.16
2017-11-27T13:53:18.755Z,100918.39
2017-11-27T13:55:47.068Z,100917.05
2017-11-27T13:58:15.442Z,100918.37
2017-11-27T14:00:43.788Z,100907.86
2017-11-27T14:03:12.918Z,100906.55
2017-11-27T14:05:41.635Z,100908.73
2017-11-27T14:08:10.392Z,100909.17
2017-11-27T14:10:38.722Z,100902.17
2017-11-27T14:13:07.843Z,100899.09
2017-11-27T14:15:36.202Z,100898.23
2017-11-27T14:18:04.952Z,100886.82
2017-11-27T14:20:33.296Z,100880.25
2017-11-27T14:23:02.826Z,100876.30
2017-11-27T14:25:31.915Z,100885.03
2017-11-27T14:28:00.249Z,100878.45
2017-11-27T14:30:28.605Z,100874.09
2017-11-27T14:32:57.327Z,100876.67
2017-11-27T14:35:26.471Z,100864.45
2017-11-27T14:37:54.811Z,100862.69
2017-11-27T14:40:23.214Z,100860.05
2017-11-27T14:42:52.303Z,100848.23
2017-11-27T14:45:20.633Z,100838.55
2017-11-27T14:47:49.000Z,100836.34
2017-11-27T14:50:17.343Z,100831.53
2017-11-27T14:52:45.704Z,100823.20
2017-11-27T14:55:14.039Z,100825.84
2017-11-27T14:57:43.183Z,100818.41
2017-11-27T15:00:11.915Z,100817.93
2017-11-27T15:02:41.001Z,100801.73
2017-11-27T15:05:09.759Z,100802.22
2017-11-27T15:07:38.112Z,100792.60
2017-11-27T15:10:07.605Z,100791.28
2017-11-27T15:12:35.946Z,100782.11
2017-11-27T15:15:05.086Z,100775.09
2017-11-27T15:17:33.440Z,100763.74
2017-11-27T15:20:01.780Z,100767.21
2017-11-27T15:22:30.544Z,100763.28
2017-11-27T15:24:59.699Z,100751.48
2017-11-27T15:27:28.071Z,100740.09
2017-11-27T15:29:57.539Z,100731.31
2017-11-27T15:32:25.935Z,100730.89
2017-11-27T15:34:54.277Z,100721.27
2017-11-27T15:37:23.439Z,100726.05
2017-11-27T15:39:51.821Z,100713.36
2017-11-27T15:42:20.144Z,100711.20
2017-11-27T15:44:48.907Z,100708.98
2017-11-27T15:47:17.261Z,100695.85
2017-11-27T15:49:45.635Z,100693.22
2017-11-27T15:52:14.025Z,100694.55
2017-11-27T15:54:43.538Z,100692.38
2017-11-27T15:57:13.385Z,100691.92
2017-11-27T15:59:41.756Z,100686.69
2017-11-27T16:02:10.863Z,100684.94
2017-11-27T16:04:39.210Z,100686.63
2017-11-27T16:07:08.674Z,100673.06
2017-11-27T16:09:37.054Z,100687.06
2017-11-27T16:12:05.470Z,100671.33
2017-11-27T16:14:33.808Z,100664.73
2017-11-27T16:17:02.150Z,100666.95
2017-11-27T16:19:30.916Z,100662.55
2017-11-27T16:21:59.285Z,100650.30
2017-11-27T16:24:28.765Z,100650.73
2017-11-27T16:26:58.262Z,100641.11
2017-11-27T16:29:26.669Z,100638.95
2017-11-27T16:31:55.130Z,100628.42
2017-11-27T16:34:24.626Z,100627.13
2017-11-27T16:36:54.095Z,100622.33
2017-11-27T16:39:22.446Z,100621.89
2017-11-27T16:41:50.850Z,100620.11
2017-11-27T16:44:20.714Z,100616.20
2017-11-27T16:46:49.625Z,100617.50
2017-11-27T16:49:19.194Z,100614.42
2017-11-27T16:51:48.908Z,100616.16
2017-11-27T16:54:17.234Z,100613.06
2017-11-27T16:56:45.610Z,100611.33
2017-11-27T16:59:13.973Z,100606.94
2017-11-27T17:01:42.333Z,100606.94
2017-11-27T17:04:10.709Z,100599.11
2017-11-27T17:06:39.570Z,100592.06
2017-11-27T17:09:08.340Z,100585.50
2017-11-27T17:11:38.006Z,100590.74
2017-11-27T17:14:06.389Z,100581.57
2017-11-27T17:16:34.739Z,100573.24
2017-11-27T17:19:03.097Z,100568.00
2017-11-27T17:21:32.202Z,100570.58
2017-11-27T17:24:01.074Z,100574.51
2017-11-27T17:26:29.449Z,100569.72
2017-11-27T17:28:58.574Z,100568.83
2017-11-27T17:31:26.962Z,100565.33
2017-11-27T17:33:56.094Z,100555.23
2017-11-27T17:36:24.424Z,100558.44
2017-11-27T17:38:52.753Z,100548.20
2017-11-27T17:41:21.530Z,100543.08
2017-11-27T17:43:49.937Z,100544.00
2017-11-27T17:46:18.281Z,100542.28
2017-11-27T17:48:46.624Z,100537.05
2017-11-27T17:51:16.109Z,100532.22
2017-11-27T17:53:45.214Z,100525.22
2017-11-27T17:56:14.009Z,100520.38
2017-11-27T17:58:43.166Z,100521.70
2017-11-27T18:01:11.493Z,100518.66
2017-11-27T18:03:39.924Z,100518.19
2017-11-27T18:06:08.289Z,100511.64
2017-11-27T18:08:37.817Z,100505.06
2017-11-27T18:11:06.953Z,100505.09
2017-11-27T18:13:35.288Z,100498.98
2017-11-27T18:16:03.733Z,100500.30
2017-11-27T18:18:32.075Z,100496.79
2017-11-27T18:21:00.416Z,100502.05
2017-11-27T18:23:29.196Z,100493.31
2017-11-27T18:25:57.929Z,100491.55
2017-11-27T18:28:26.345Z,100487.61
2017-11-27T18:30:54.754Z,100484.56
2017-11-27T18:33:24.208Z,100475.83
2017-11-27T18:35:52.555Z,100477.14
2017-11-27T18:38:22.238Z,100468.41
2017-11-27T18:40:50.660Z,100462.28
2017-11-27T18:43:20.353Z,100467.52
2017-11-27T18:45:49.161Z,100457.05
2017-11-27T18:48:17.578Z,100451.78
2017-11-27T18:50:45.917Z,100453.11
2017-11-27T18:53:14.690Z,100443.50
2017-11-27T18:55:43.434Z,100444.38
2017-11-27T18:58:11.821Z,100441.33
2017-11-27T19:00:40.629Z,100430.84
2017-11-27T19:03:10.339Z,100439.14
2017-11-27T19:05:39.458Z,100438.70
2017-11-27T19:08:08.350Z,100436.53
2017-11-27T19:10:36.823Z,100431.27
2017-11-27T19:13:06.098Z,100422.53
2017-11-27T19:15:34.947Z,100420.80
2017-11-27T19:18:04.109Z,100418.59
2017-11-27T19:20:32.441Z,100417.72
2017-11-27T19:23:01.761Z,100404.19
2017-11-27T19:25:30.107Z,100416.42
2017-11-27T19:27:59.252Z,100409.87
2017-11-27T19:30:31.806Z,100401.12
2017-11-27T19:33:01.674Z,100401.12
2017-11-27T19:35:31.104Z,100400.68
2017-11-27T19:38:01.197Z,100394.15
2017-11-27T19:40:30.401Z,100389.77
2017-11-27T19:43:00.104Z,100391.48
2017-11-27T19:45:28.496Z,100395.00
2017-11-27T19:47:57.884Z,100388.88
2017-11-27T19:50:26.293Z,100391.06
2017-11-27T19:52:56.366Z,100383.64
2017-11-27T19:55:26.070Z,100380.59
2017-11-27T19:57:54.496Z,100382.75
2017-11-27T20:00:25.832Z,100371.83
2017-11-27T20:02:55.006Z,100371.39
2017-11-27T20:05:26.339Z,100373.13
2017-11-27T20:07:55.312Z,100370.06
2017-11-27T20:10:24.480Z,100361.77
2017-11-27T20:12:54.328Z,100359.58
2017-11-27T20:15:23.929Z,100347.80
2017-11-27T20:17:53.119Z,100355.18
2017-11-27T20:20:21.478Z,100355.64
2017-11-27T20:22:49.838Z,100347.34
2017-11-27T20:25:18.198Z,100346.48
2017-11-27T20:27:46.584Z,100342.97
2017-11-27T20:30:14.957Z,100342.53
2017-11-27T20:32:44.247Z,100341.23
2017-11-27T20:35:13.382Z,100344.73
2017-11-27T20:37:41.783Z,100334.66
2017-11-27T20:40:12.228Z,100328.08
2017-11-27T20:42:42.662Z,100332.48
2017-11-27T20:45:11.548Z,100328.08
2017-11-27T20:47:40.233Z,100325.92
2017-11-27T20:50:10.927Z,100316.74
2017-11-27T20:52:40.408Z,100313.22
2017-11-27T20:55:10.891Z,100311.03
2017-11-27T20:57:39.756Z,100301.85
2017-11-27T21:00:11.324Z,100304.00
2017-11-27T21:02:40.636Z,100300.13
2017-11-27T21:05:09.835Z,100289.17
2017-11-27T21:07:38.305Z,100286.59
2017-11-27T21:10:09.301Z,100282.62
2017-11-27T21:12:38.900Z,100282.18
2017-11-27T21:15:07.358Z,100269.94
2017-11-27T21:17:35.936Z,100273.88
2017-11-27T21:20:04.304Z,100276.50
2017-11-27T21:22:32.779Z,100267.32
2017-11-27T21:25:02.527Z,100268.59
2017-11-27T21:27:30.863Z,100266.41
2017-11-27T21:30:02.107Z,100264.19
2017-11-27T21:32:31.587Z,100257.23
2017-11-27T21:35:00.343Z,100263.75
2017-11-27T21:37:28.737Z,100256.75
2017-11-27T21:39:58.434Z,100260.69
2017-11-27T21:42:26.828Z,100258.06
2017-11-27T21:44:56.797Z,100261.59
2017-11-27T21:47:25.170Z,100260.72
2017-11-27T21:49:53.567Z,100260.72
2017-11-27T21:52:21.911Z,100261.12
2017-11-27T21:54:51.947Z,100252.38
2017-11-27T21:57:20.317Z,100256.75
2017-11-27T21:59:50.225Z,100247.95
2017-11-27T22:02:19.376Z,100247.52
2017-11-27T22:04:48.267Z,100246.20
2017-11-27T22:07:16.633Z,100238.38
2017-11-27T22:09:45.758Z,100236.20
2017-11-27T22:12:15.067Z,100230.51
2017-11-27T22:14:45.003Z,100232.20
2017-11-27T22:17:13.366Z,100237.95
2017-11-27T22:19:42.312Z,100231.39
2017-11-27T22:22:10.653Z,100230.47
2017-11-27T22:24:39.746Z,100229.59
2017-11-27T22:27:09.252Z,100223.46
2017-11-27T22:29:38.955Z,100220.84
2017-11-27T22:32:08.638Z,100213.80
2017-11-27T22:34:36.998Z,100215.59
2017-11-27T22:37:05.339Z,100214.67
2017-11-27T22:39:33.723Z,100211.99
2017-11-27T22:42:03.058Z,100212.38
2017-11-27T22:44:31.503Z,100206.67
2017-11-27T22:46:59.878Z,100209.79
2017-11-27T22:49:28.208Z,100206.75
2017-11-27T22:51:56.728Z,100201.06
2017-11-27T22:54:26.190Z,100205.04
2017-11-27T22:56:54.526Z,100191.88
2017-11-27T22:59:22.910Z,100198.42
2017-11-27T23:01:51.281Z,100194.92
2017-11-27T23:04:19.651Z,100189.59
2017-11-27T23:06:48.011Z,100184.38
2017-11-27T23:09:17.146Z,100173.88
2017-11-27T23:11:46.325Z,100187.91
2017-11-27T23:14:14.698Z,100176.05
2017-11-27T23:16:43.008Z,100173.86
2017-11-27T23:19:11.406Z,100173.00
2017-11-27T23:21:39.747Z,100167.80
2017-11-27T23:24:09.639Z,100156.44
2017-11-27T23:26:38.366Z,100159.48
2017-11-27T23:29:06.711Z,100152.41
2017-11-27T23:31:35.131Z,100141.05
2017-11-27T23:34:03.473Z,100142.82
2017-11-27T23:36:32.766Z,100146.28
2017-11-27T23:39:01.126Z,100135.81
2017-11-27T23:41:29.465Z,100132.29
2017-11-27T23:43:57.814Z,100130.09
2017-11-27T23:46:26.530Z,100132.70
2017-11-27T23:48:55.303Z,100131.33
2017-11-27T23:51:24.015Z,100116.89
2017-11-27T23:53:52.729Z,100116.88
2017-11-27T23:56:21.077Z,100118.68
2017-11-27T23:58:49.454Z,100112.08
